sensor_id;sensor_type;location;lat;lon;timestamp;pressure;altitude;pressure_sealevel;temperature;humidity
49459;BME280;35354;51.296;16.924;2023-05-18T00:01:08;100445.81;;;9.74;77.72
49459;BME280;35354;51.296;16.924;2023-05-18T00:03:33;100425.66;;;9.53;77.98
49459;BME280;35354;51.296;16.924;2023-05-18T00:06:00;100448.69;;;9.65;78.28
49459;BME280;35354;51.296;16.924;2023-05-18T00:08:35;100422.44;;;9.45;78.04
49459;BME280;35354;51.296;16.924;2023-05-18T00:11:01;100430.88;;;9.52;77.77
49459;BME280;35354;51.296;16.924;2023-05-18T00:13:27;100459.09;;;9.65;77.69
49459;BME280;35354;51.296;16.924;2023-05-18T00:15:52;100462.72;;;9.60;77.71
49459;BME280;35354;51.296;16.924;2023-05-18T00:18:18;100444.97;;;9.44;77.35
49459;BME280;35354;51.296;16.924;2023-05-18T00:20:51;100454.75;;;9.36;77.73
49459;BME280;35354;51.296;16.924;2023-05-18T00:23:24;100437.09;;;9.16;77.34
49459;BME280;35354;51.296;16.924;2023-05-18T00:25:49;100455.75;;;9.31;77.75
49459;BME280;35354;51.296;16.924;2023-05-18T00:28:15;100461.00;;;9.29;77.94
49459;BME280;35354;51.296;16.924;2023-05-18T00:30:40;100466.25;;;9.28;78.40
49459;BME280;35354;51.296;16.924;2023-05-18T00:33:05;100471.47;;;9.28;78.41
49459;BME280;35354;51.296;16.924;2023-05-18T00:35:31;100436.59;;;9.04;78.59
49459;BME280;35354;51.296;16.924;2023-05-18T00:37:56;100443.56;;;9.02;78.64
49459;BME280;35354;51.296;16.924;2023-05-18T00:40:23;100410.44;;;8.79;79.65
49459;BME280;35354;51.296;16.924;2023-05-18T00:42:49;100439.59;;;8.88;79.38
49459;BME280;35354;51.296;16.924;2023-05-18T00:45:15;100427.69;;;8.81;79.45
49459;BME280;35354;51.296;16.924;2023-05-18T00:47:40;100439.94;;;8.76;79.42
49459;BME280;35354;51.296;16.924;2023-05-18T00:50:06;100476.09;;;8.84;79.66
49459;BME280;35354;51.296;16.924;2023-05-18T00:52:31;100459.06;;;8.73;79.48
49459;BME280;35354;51.296;16.924;2023-05-18T00:54:58;100445.69;;;8.55;79.89
49459;BME280;35354;51.296;16.924;2023-05-18T00:57:24;100449.97;;;8.57;79.54
49459;BME280;35354;51.296;16.924;2023-05-18T00:59:50;100479.13;;;8.68;79.60
49459;BME280;35354;51.296;16.924;2023-05-18T01:02:15;100480.03;;;8.66;79.34
49459;BME280;35354;51.296;16.924;2023-05-18T01:04:41;100503.88;;;8.82;78.89
49459;BME280;35354;51.296;16.924;2023-05-18T01:07:07;100491.19;;;8.69;79.29
49459;BME280;35354;51.296;16.924;2023-05-18T01:09:33;100480.34;;;8.54;79.06
49459;BME280;35354;51.296;16.924;2023-05-18T01:12:05;100462.41;;;8.44;78.86
49459;BME280;35354;51.296;16.924;2023-05-18T01:22:58;100481.75;;;8.30;79.08
49459;BME280;35354;51.296;16.924;2023-05-18T01:25:33;100515.00;;;8.53;78.95
49459;BME280;35354;51.296;16.924;2023-05-18T01:28:07;100495.06;;;8.53;78.82
49459;BME280;35354;51.296;16.924;2023-05-18T01:30:39;100449.13;;;8.19;79.05
49459;BME280;35354;51.296;16.924;2023-05-18T01:33:09;100476.34;;;8.40;78.63
49459;BME280;35354;51.296;16.924;2023-05-18T01:35:38;100502.06;;;8.49;78.68
49459;BME280;35354;51.296;16.924;2023-05-18T01:38:05;100516.75;;;8.52;78.57
49459;BME280;35354;51.296;16.924;2023-05-18T01:40:35;100481.75;;;8.30;78.96
49459;BME280;35354;51.296;16.924;2023-05-18T01:43:09;100510.88;;;8.44;79.35
49459;BME280;35354;51.296;16.924;2023-05-18T01:45:38;100506.59;;;8.41;79.35
49459;BME280;35354;51.296;16.924;2023-05-18T01:48:06;100507.44;;;8.42;79.41
49459;BME280;35354;51.296;16.924;2023-05-18T01:50:36;100529.63;;;8.55;79.78
49459;BME280;35354;51.296;16.924;2023-05-18T01:55:42;100488.00;;;8.22;79.77
49459;BME280;35354;51.296;16.924;2023-05-18T01:58:10;100506.00;;;8.30;80.40
49459;BME280;35354;51.296;16.924;2023-05-18T02:00:36;100477.06;;;8.08;80.47
49459;BME280;35354;51.296;16.924;2023-05-18T02:03:02;100526.56;;;8.38;80.66
49459;BME280;35354;51.296;16.924;2023-05-18T02:05:27;100514.63;;;8.31;80.58
49459;BME280;35354;51.296;16.924;2023-05-18T02:07:53;100527.41;;;8.40;80.47
49459;BME280;35354;51.296;16.924;2023-05-18T02:10:18;100528.31;;;8.37;80.81
49459;BME280;35354;51.296;16.924;2023-05-18T02:12:43;100523.97;;;8.39;80.70
49459;BME280;35354;51.296;16.924;2023-05-18T02:15:13;100523.91;;;8.41;81.11
49459;BME280;35354;51.296;16.924;2023-05-18T02:17:38;100512.88;;;8.31;81.86
49459;BME280;35354;51.296;16.924;2023-05-18T02:20:04;100527.50;;;8.34;81.97
49459;BME280;35354;51.296;16.924;2023-05-18T02:22:34;100497.59;;;8.17;82.03
49459;BME280;35354;51.296;16.924;2023-05-18T02:25:00;100503.59;;;8.21;82.07
49459;BME280;35354;51.296;16.924;2023-05-18T02:27:25;100525.84;;;8.31;82.11
49459;BME280;35354;51.296;16.924;2023-05-18T02:29:51;100477.13;;;8.07;82.41
49459;BME280;35354;51.296;16.924;2023-05-18T02:32:16;100454.91;;;7.95;82.44
49459;BME280;35354;51.296;16.924;2023-05-18T02:34:42;100507.03;;;8.21;82.58
49459;BME280;35354;51.296;16.924;2023-05-18T02:37:07;100530.22;;;8.29;82.18
49459;BME280;35354;51.296;16.924;2023-05-18T02:39:32;100503.06;;;8.07;81.98
49459;BME280;35354;51.296;16.924;2023-05-18T02:41:58;100495.38;;;8.02;81.91
49459;BME280;35354;51.296;16.924;2023-05-18T02:44:24;100489.47;;;7.95;81.99
49459;BME280;35354;51.296;16.924;2023-05-18T02:46:49;100530.50;;;8.17;82.44
49459;BME280;35354;51.296;16.924;2023-05-18T02:49:15;100537.69;;;8.06;82.60
49459;BME280;35354;51.296;16.924;2023-05-18T02:51:40;100533.34;;;8.05;82.70
49459;BME280;35354;51.296;16.924;2023-05-18T02:54:05;100488.34;;;7.68;82.65
49459;BME280;35354;51.296;16.924;2023-05-18T02:56:31;100532.78;;;7.92;82.40
49459;BME280;35354;51.296;16.924;2023-05-18T02:58:57;100532.97;;;7.83;83.17
49459;BME280;35354;51.296;16.924;2023-05-18T03:01:25;100517.56;;;7.75;82.90
49459;BME280;35354;51.296;16.924;2023-05-18T03:03:51;100545.84;;;7.87;83.33
49459;BME280;35354;51.296;16.924;2023-05-18T03:06:17;100532.28;;;7.74;83.26
49459;BME280;35354;51.296;16.924;2023-05-18T03:08:46;100515.25;;;7.63;83.93
49459;BME280;35354;51.296;16.924;2023-05-18T03:11:13;100527.38;;;7.61;83.91
49459;BME280;35354;51.296;16.924;2023-05-18T03:13:38;100523.94;;;7.60;83.65
49459;BME280;35354;51.296;16.924;2023-05-18T03:16:03;100542.84;;;7.65;83.95
49459;BME280;35354;51.296;16.924;2023-05-18T03:18:29;100550.63;;;7.65;83.94
49459;BME280;35354;51.296;16.924;2023-05-18T03:20:54;100518.16;;;7.47;84.46
49459;BME280;35354;51.296;16.924;2023-05-18T03:23:20;100531.88;;;7.53;84.63
49459;BME280;35354;51.296;16.924;2023-05-18T03:25:45;100546.56;;;7.52;84.19
49459;BME280;35354;51.296;16.924;2023-05-18T03:28:11;100521.84;;;7.36;84.49
49459;BME280;35354;51.296;16.924;2023-05-18T03:30:36;100566.19;;;7.65;84.20
49459;BME280;35354;51.296;16.924;2023-05-18T03:33:02;100548.97;;;7.63;84.44
49459;BME280;35354;51.296;16.924;2023-05-18T03:35:27;100502.84;;;7.35;84.09
49459;BME280;35354;51.296;16.924;2023-05-18T03:37:53;100562.50;;;7.77;84.03
49459;BME280;35354;51.296;16.924;2023-05-18T03:40:19;100535.06;;;7.67;83.45
49459;BME280;35354;51.296;16.924;2023-05-18T03:42:44;100568.28;;;7.90;83.21
49459;BME280;35354;51.296;16.924;2023-05-18T03:45:10;100544.28;;;7.80;82.48
49459;BME280;35354;51.296;16.924;2023-05-18T03:47:36;100539.91;;;7.82;82.52
49459;BME280;35354;51.296;16.924;2023-05-18T03:50:03;100577.41;;;8.08;82.33
49459;BME280;35354;51.296;16.924;2023-05-18T03:52:29;100536.25;;;7.91;82.08
49459;BME280;35354;51.296;16.924;2023-05-18T03:54:55;100543.78;;;8.03;82.16
49459;BME280;35354;51.296;16.924;2023-05-18T03:57:20;100576.91;;;8.31;82.06
49459;BME280;35354;51.296;16.924;2023-05-18T03:59:45;100542.34;;;8.29;81.75
49459;BME280;35354;51.296;16.924;2023-05-18T04:02:11;100573.75;;;8.57;81.16
49459;BME280;35354;51.296;16.924;2023-05-18T04:04:38;100593.03;;;8.82;80.56
49459;BME280;35354;51.296;16.924;2023-05-18T04:07:07;100538.81;;;8.70;80.36
49459;BME280;35354;51.296;16.924;2023-05-18T04:09:32;100560.75;;;9.25;79.05
49459;BME280;35354;51.296;16.924;2023-05-18T04:11:58;100571.59;;;9.73;77.19
49459;BME280;35354;51.296;16.924;2023-05-18T04:14:23;100565.66;;;10.28;74.86
49459;BME280;35354;51.296;16.924;2023-05-18T04:16:49;100588.47;;;11.02;73.13
49459;BME280;35354;51.296;16.924;2023-05-18T04:19:16;100595.97;;;11.36;71.31
49459;BME280;35354;51.296;16.924;2023-05-18T04:21:43;100576.13;;;11.32;70.91
49459;BME280;35354;51.296;16.924;2023-05-18T04:24:11;100596.53;;;11.21;70.79
49459;BME280;35354;51.296;16.924;2023-05-18T04:26:39;100581.72;;;10.95;71.50
49459;BME280;35354;51.296;16.924;2023-05-18T04:29:05;100605.09;;;10.98;72.29
49459;BME280;35354;51.296;16.924;2023-05-18T04:31:32;100582.22;;;10.53;72.75
49459;BME280;35354;51.296;16.924;2023-05-18T04:33:59;100597.16;;;10.48;73.23
49459;BME280;35354;51.296;16.924;2023-05-18T04:36:25;100599.81;;;10.46;73.72
49459;BME280;35354;51.296;16.924;2023-05-18T04:38:57;100589.16;;;10.26;73.81
49459;BME280;35354;51.296;16.924;2023-05-18T04:41:23;100615.22;;;10.23;74.05
49459;BME280;35354;51.296;16.924;2023-05-18T04:43:49;100590.47;;;10.10;74.49
49459;BME280;35354;51.296;16.924;2023-05-18T04:46:15;100586.66;;;9.92;74.70
49459;BME280;35354;51.296;16.924;2023-05-18T04:48:41;100588.03;;;9.74;75.27
49459;BME280;35354;51.296;16.924;2023-05-18T04:51:06;100587.13;;;9.75;75.17
49459;BME280;35354;51.296;16.924;2023-05-18T04:53:33;100631.69;;;9.94;74.83
49459;BME280;35354;51.296;16.924;2023-05-18T04:55:58;100618.66;;;9.95;75.17
49459;BME280;35354;51.296;16.924;2023-05-18T04:58:26;100606.00;;;9.83;74.90
49459;BME280;35354;51.296;16.924;2023-05-18T05:00:52;100627.19;;;10.00;74.81
49459;BME280;35354;51.296;16.924;2023-05-18T05:03:18;100624.78;;;9.93;75.04
49459;BME280;35354;51.296;16.924;2023-05-18T05:05:43;100606.84;;;9.84;75.32
49459;BME280;35354;51.296;16.924;2023-05-18T05:08:08;100594.63;;;9.55;75.94
49459;BME280;35354;51.296;16.924;2023-05-18T05:10:34;100619.94;;;9.81;75.86
49459;BME280;35354;51.296;16.924;2023-05-18T05:12:59;100589.69;;;9.77;75.75
49459;BME280;35354;51.296;16.924;2023-05-18T05:15:25;100605.66;;;9.94;75.45
49459;BME280;35354;51.296;16.924;2023-05-18T05:17:50;100617.88;;;9.92;75.19
49459;BME280;35354;51.296;16.924;2023-05-18T05:20:16;100611.75;;;9.94;75.20
49459;BME280;35354;51.296;16.924;2023-05-18T05:22:41;100599.72;;;9.90;74.79
49459;BME280;35354;51.296;16.924;2023-05-18T05:25:07;100598.13;;;9.85;74.43
49459;BME280;35354;51.296;16.924;2023-05-18T05:27:32;100615.44;;;9.86;75.51
49459;BME280;35354;51.296;16.924;2023-05-18T05:29:58;100612.81;;;9.87;75.19
49459;BME280;35354;51.296;16.924;2023-05-18T05:32:23;100629.44;;;10.13;74.91
49459;BME280;35354;51.296;16.924;2023-05-18T05:34:49;100633.16;;;10.04;74.79
49459;BME280;35354;51.296;16.924;2023-05-18T05:37:15;100577.88;;;9.65;74.86
49459;BME280;35354;51.296;16.924;2023-05-18T05:39:40;100633.63;;;9.87;75.48
49459;BME280;35354;51.296;16.924;2023-05-18T05:42:05;100606.31;;;9.71;75.65
49459;BME280;35354;51.296;16.924;2023-05-18T05:44:32;100623.81;;;9.97;75.58
49459;BME280;35354;51.296;16.924;2023-05-18T05:46:57;100613.34;;;9.98;75.21
49459;BME280;35354;51.296;16.924;2023-05-18T05:49:23;100609.81;;;10.01;75.32
49459;BME280;35354;51.296;16.924;2023-05-18T05:51:48;100643.88;;;10.23;74.59
49459;BME280;35354;51.296;16.924;2023-05-18T05:54:14;100631.03;;;10.17;74.45
49459;BME280;35354;51.296;16.924;2023-05-18T05:56:39;100617.34;;;10.10;74.01
49459;BME280;35354;51.296;16.924;2023-05-18T05:59:04;100620.44;;;10.23;73.57
49459;BME280;35354;51.296;16.924;2023-05-18T06:01:30;100605.78;;;10.20;73.38
49459;BME280;35354;51.296;16.924;2023-05-18T06:03:56;100645.69;;;10.51;72.87
49459;BME280;35354;51.296;16.924;2023-05-18T06:06:21;100648.25;;;10.52;72.53
49459;BME280;35354;51.296;16.924;2023-05-18T06:08:47;100616.34;;;10.45;72.42
49459;BME280;35354;51.296;16.924;2023-05-18T06:11:12;100612.59;;;10.54;71.58
49459;BME280;35354;51.296;16.924;2023-05-18T06:13:37;100650.03;;;10.78;71.72
49459;BME280;35354;51.296;16.924;2023-05-18T06:16:03;100643.81;;;10.82;71.45
49459;BME280;35354;51.296;16.924;2023-05-18T06:18:28;100638.34;;;10.91;71.00
49459;BME280;35354;51.296;16.924;2023-05-18T06:20:53;100621.13;;;10.86;70.90
49459;BME280;35354;51.296;16.924;2023-05-18T06:23:19;100631.16;;;10.98;70.49
49459;BME280;35354;51.296;16.924;2023-05-18T06:25:47;100658.84;;;11.02;69.35
49459;BME280;35354;51.296;16.924;2023-05-18T06:28:13;100662.91;;;11.11;70.11
49459;BME280;35354;51.296;16.924;2023-05-18T06:30:38;100665.19;;;11.20;69.49
49459;BME280;35354;51.296;16.924;2023-05-18T06:33:04;100627.16;;;11.14;69.49
49459;BME280;35354;51.296;16.924;2023-05-18T06:35:29;100632.41;;;11.39;69.50
49459;BME280;35354;51.296;16.924;2023-05-18T06:37:54;100661.19;;;11.36;68.44
49459;BME280;35354;51.296;16.924;2023-05-18T06:40:20;100647.97;;;11.41;68.53
49459;BME280;35354;51.296;16.924;2023-05-18T06:42:45;100639.47;;;11.61;68.17
49459;BME280;35354;51.296;16.924;2023-05-18T06:45:11;100657.44;;;11.95;66.92
49459;BME280;35354;51.296;16.924;2023-05-18T06:47:37;100666.56;;;12.30;65.97
49459;BME280;35354;51.296;16.924;2023-05-18T06:50:03;100645.16;;;12.20;65.23
49459;BME280;35354;51.296;16.924;2023-05-18T06:52:28;100636.66;;;12.39;65.17
49459;BME280;35354;51.296;16.924;2023-05-18T06:54:54;100643.19;;;12.72;63.45
49459;BME280;35354;51.296;16.924;2023-05-18T06:57:19;100674.38;;;12.99;62.22
49459;BME280;35354;51.296;16.924;2023-05-18T06:59:45;100653.19;;;12.83;61.20
49459;BME280;35354;51.296;16.924;2023-05-18T07:02:14;100666.53;;;12.99;60.98
49459;BME280;35354;51.296;16.924;2023-05-18T07:04:39;100671.09;;;13.14;60.57
49459;BME280;35354;51.296;16.924;2023-05-18T07:07:05;100648.69;;;12.87;59.90
49459;BME280;35354;51.296;16.924;2023-05-18T07:09:31;100660.97;;;13.29;59.94
49459;BME280;35354;51.296;16.924;2023-05-18T07:11:57;100668.03;;;13.67;59.95
49459;BME280;35354;51.296;16.924;2023-05-18T07:14:22;100637.81;;;13.60;59.57
49459;BME280;35354;51.296;16.924;2023-05-18T07:16:48;100669.59;;;13.92;58.75
49459;BME280;35354;51.296;16.924;2023-05-18T07:19:13;100639.66;;;13.58;58.45
49459;BME280;35354;51.296;16.924;2023-05-18T07:21:39;100665.09;;;13.75;58.41
49459;BME280;35354;51.296;16.924;2023-05-18T07:24:04;100670.16;;;13.59;58.31
49459;BME280;35354;51.296;16.924;2023-05-18T07:26:30;100672.00;;;13.57;58.79
49459;BME280;35354;51.296;16.924;2023-05-18T07:28:56;100664.16;;;13.35;58.75
49459;BME280;35354;51.296;16.924;2023-05-18T07:31:22;100662.63;;;13.52;58.82
49459;BME280;35354;51.296;16.924;2023-05-18T07:33:47;100647.56;;;13.57;58.10
49459;BME280;35354;51.296;16.924;2023-05-18T07:36:13;100666.59;;;13.60;58.23
49459;BME280;35354;51.296;16.924;2023-05-18T07:38:38;100665.63;;;13.42;58.33
49459;BME280;35354;51.296;16.924;2023-05-18T07:41:04;100670.28;;;13.36;59.14
49459;BME280;35354;51.296;16.924;2023-05-18T07:43:29;100652.28;;;13.48;58.08
49459;BME280;35354;51.296;16.924;2023-05-18T07:45:55;100678.59;;;13.86;57.96
49459;BME280;35354;51.296;16.924;2023-05-18T07:48:20;100665.50;;;13.86;57.33
49459;BME280;35354;51.296;16.924;2023-05-18T07:50:45;100650.25;;;13.94;57.25
49459;BME280;35354;51.296;16.924;2023-05-18T07:53:11;100667.75;;;14.33;56.42
49459;BME280;35354;51.296;16.924;2023-05-18T07:55:36;100671.22;;;14.34;55.58
49459;BME280;35354;51.296;16.924;2023-05-18T07:58:01;100665.66;;;14.02;54.92
49459;BME280;35354;51.296;16.924;2023-05-18T08:00:27;100648.06;;;14.25;55.06
49459;BME280;35354;51.296;16.924;2023-05-18T08:02:53;100650.47;;;14.29;54.79
49459;BME280;35354;51.296;16.924;2023-05-18T08:05:18;100641.31;;;14.38;53.86
49459;BME280;35354;51.296;16.924;2023-05-18T08:07:46;100668.25;;;14.79;53.36
49459;BME280;35354;51.296;16.924;2023-05-18T08:10:12;100628.38;;;14.90;52.19
49459;BME280;35354;51.296;16.924;2023-05-18T08:12:37;100666.59;;;14.77;53.37
49459;BME280;35354;51.296;16.924;2023-05-18T08:15:03;100645.38;;;15.00;53.64
49459;BME280;35354;51.296;16.924;2023-05-18T08:17:28;100628.38;;;15.25;52.46
49459;BME280;35354;51.296;16.924;2023-05-18T08:19:54;100640.69;;;15.76;53.36
49459;BME280;35354;51.296;16.924;2023-05-18T08:22:19;100634.19;;;15.48;51.80
49459;BME280;35354;51.296;16.924;2023-05-18T08:24:45;100623.22;;;15.23;52.44
49459;BME280;35354;51.296;16.924;2023-05-18T08:27:11;100652.41;;;15.52;52.37
49459;BME280;35354;51.296;16.924;2023-05-18T08:29:36;100657.44;;;15.74;52.40
49459;BME280;35354;51.296;16.924;2023-05-18T08:32:04;100651.47;;;15.35;52.18
49459;BME280;35354;51.296;16.924;2023-05-18T08:34:30;100636.34;;;15.23;52.77
49459;BME280;35354;51.296;16.924;2023-05-18T08:36:55;100669.41;;;15.44;52.54
49459;BME280;35354;51.296;16.924;2023-05-18T08:39:20;100670.16;;;15.29;52.17
49459;BME280;35354;51.296;16.924;2023-05-18T08:41:56;100660.59;;;15.28;51.38
49459;BME280;35354;51.296;16.924;2023-05-18T08:44:37;100632.88;;;14.69;52.40
49459;BME280;35354;51.296;16.924;2023-05-18T08:47:08;100661.47;;;14.92;52.85
49459;BME280;35354;51.296;16.924;2023-05-18T08:49:33;100668.66;;;14.70;53.04
49459;BME280;35354;51.296;16.924;2023-05-18T08:52:02;100657.66;;;15.17;53.41
49459;BME280;35354;51.296;16.924;2023-05-18T08:54:29;100648.91;;;15.16;52.64
49459;BME280;35354;51.296;16.924;2023-05-18T08:56:56;100632.88;;;15.22;53.30
49459;BME280;35354;51.296;16.924;2023-05-18T08:59:24;100653.72;;;15.26;52.96
49459;BME280;35354;51.296;16.924;2023-05-18T09:01:51;100660.97;;;15.38;52.85
49459;BME280;35354;51.296;16.924;2023-05-18T09:04:19;100621.31;;;14.73;52.90
49459;BME280;35354;51.296;16.924;2023-05-18T09:06:46;100632.78;;;14.89;53.59
49459;BME280;35354;51.296;16.924;2023-05-18T09:09:13;100632.25;;;15.00;53.35
49459;BME280;35354;51.296;16.924;2023-05-18T09:11:38;100614.03;;;14.80;53.73
49459;BME280;35354;51.296;16.924;2023-05-18T09:14:05;100633.56;;;15.09;54.17
49459;BME280;35354;51.296;16.924;2023-05-18T09:16:30;100651.00;;;15.10;53.40
49459;BME280;35354;51.296;16.924;2023-05-18T09:18:56;100644.00;;;15.28;53.42
49459;BME280;35354;51.296;16.924;2023-05-18T09:21:21;100630.41;;;15.37;54.05
49459;BME280;35354;51.296;16.924;2023-05-18T09:23:47;100644.34;;;15.55;53.53
49459;BME280;35354;51.296;16.924;2023-05-18T09:26:12;100622.53;;;15.37;53.47
49459;BME280;35354;51.296;16.924;2023-05-18T09:28:40;100651.00;;;15.44;52.91
49459;BME280;35354;51.296;16.924;2023-05-18T09:31:07;100655.50;;;15.60;52.62
49459;BME280;35354;51.296;16.924;2023-05-18T09:33:35;100638.72;;;15.45;53.20
49459;BME280;35354;51.296;16.924;2023-05-18T09:36:03;100651.72;;;15.48;53.13
49459;BME280;35354;51.296;16.924;2023-05-18T09:38:29;100623.69;;;15.66;52.54
49459;BME280;35354;51.296;16.924;2023-05-18T09:40:54;100639.56;;;15.63;53.92
49459;BME280;35354;51.296;16.924;2023-05-18T09:43:20;100618.19;;;15.70;53.22
49459;BME280;35354;51.296;16.924;2023-05-18T09:45:47;100646.94;;;15.74;51.78
49459;BME280;35354;51.296;16.924;2023-05-18T09:48:15;100623.31;;;15.39;52.88
49459;BME280;35354;51.296;16.924;2023-05-18T09:50:44;100643.13;;;15.79;54.04
49459;BME280;35354;51.296;16.924;2023-05-18T09:53:10;100607.97;;;15.82;53.31
49459;BME280;35354;51.296;16.924;2023-05-18T09:55:39;100645.16;;;16.07;53.61
49459;BME280;35354;51.296;16.924;2023-05-18T09:58:08;100647.19;;;16.02;52.58
49459;BME280;35354;51.296;16.924;2023-05-18T10:00:37;100630.41;;;16.20;52.69
49459;BME280;35354;51.296;16.924;2023-05-18T10:03:15;100613.78;;;15.71;52.58
49459;BME280;35354;51.296;16.924;2023-05-18T10:05:41;100598.75;;;15.22;52.77
49459;BME280;35354;51.296;16.924;2023-05-18T10:08:06;100608.88;;;15.13;53.57
49459;BME280;35354;51.296;16.924;2023-05-18T10:10:37;100629.19;;;15.27;52.88
49459;BME280;35354;51.296;16.924;2023-05-18T10:13:03;100630.75;;;14.77;53.79
49459;BME280;35354;51.296;16.924;2023-05-18T10:15:28;100618.34;;;14.81;53.60
49459;BME280;35354;51.296;16.924;2023-05-18T10:17:55;100629.66;;;14.81;55.31
49459;BME280;35354;51.296;16.924;2023-05-18T10:20:22;100604.19;;;14.66;53.78
49459;BME280;35354;51.296;16.924;2023-05-18T10:22:54;100646.81;;;14.88;53.15
49459;BME280;35354;51.296;16.924;2023-05-18T10:25:22;100631.91;;;14.71;52.74
49459;BME280;35354;51.296;16.924;2023-05-18T10:27:49;100606.53;;;14.53;54.32
49459;BME280;35354;51.296;16.924;2023-05-18T10:30:15;100574.69;;;14.25;54.39
49459;BME280;35354;51.296;16.924;2023-05-18T10:32:44;100616.59;;;14.43;54.09
49459;BME280;35354;51.296;16.924;2023-05-18T10:35:10;100619.66;;;14.53;54.77
49459;BME280;35354;51.296;16.924;2023-05-18T10:37:39;100611.78;;;14.34;54.88
49459;BME280;35354;51.296;16.924;2023-05-18T10:40:06;100614.25;;;14.56;54.71
49459;BME280;35354;51.296;16.924;2023-05-18T10:42:32;100613.47;;;14.73;55.02
49459;BME280;35354;51.296;16.924;2023-05-18T10:44:59;100599.53;;;14.54;54.48
49459;BME280;35354;51.296;16.924;2023-05-18T10:47:27;100620.38;;;14.74;55.15
49459;BME280;35354;51.296;16.924;2023-05-18T10:49:53;100626.00;;;15.03;55.26
49459;BME280;35354;51.296;16.924;2023-05-18T10:52:19;100563.72;;;14.71;54.00
49459;BME280;35354;51.296;16.924;2023-05-18T10:54:46;100621.44;;;15.06;54.32
49459;BME280;35354;51.296;16.924;2023-05-18T10:57:16;100608.84;;;14.95;53.96
49459;BME280;35354;51.296;16.924;2023-05-18T10:59:43;100606.44;;;14.91;53.80
49459;BME280;35354;51.296;16.924;2023-05-18T11:02:16;100591.25;;;14.80;53.91
49459;BME280;35354;51.296;16.924;2023-05-18T11:04:45;100581.84;;;14.76;53.97
49459;BME280;35354;51.296;16.924;2023-05-18T11:07:12;100603.78;;;15.10;53.83
49459;BME280;35354;51.296;16.924;2023-05-18T11:09:41;100604.94;;;15.21;54.14
49459;BME280;35354;51.296;16.924;2023-05-18T11:12:12;100602.63;;;15.15;54.55
49459;BME280;35354;51.296;16.924;2023-05-18T11:14:47;100603.41;;;15.00;53.11
49459;BME280;35354;51.296;16.924;2023-05-18T11:22:51;100610.69;;;14.76;52.99
49459;BME280;35354;51.296;16.924;2023-05-18T11:28:02;100590.25;;;14.46;53.14
49459;BME280;35354;51.296;16.924;2023-05-18T11:33:09;100602.00;;;14.57;53.26
49459;BME280;35354;51.296;16.924;2023-05-18T11:36:01;100605.50;;;14.75;53.31
49459;BME280;35354;51.296;16.924;2023-05-18T11:44:17;100606.44;;;14.91;53.53
49459;BME280;35354;51.296;16.924;2023-05-18T11:49:36;100598.59;;;15.08;52.08
49459;BME280;35354;51.296;16.924;2023-05-18T11:52:21;100604.06;;;15.21;52.01
49459;BME280;35354;51.296;16.924;2023-05-18T11:54:51;100610.47;;;14.98;52.26
49459;BME280;35354;51.296;16.924;2023-05-18T11:57:20;100599.47;;;15.09;52.94
49459;BME280;35354;51.296;16.924;2023-05-18T11:59:53;100588.75;;;15.13;52.91
49459;BME280;35354;51.296;16.924;2023-05-18T12:02:20;100610.56;;;15.14;52.22
49459;BME280;35354;51.296;16.924;2023-05-18T12:04:57;100584.19;;;15.17;52.28
49459;BME280;35354;51.296;16.924;2023-05-18T12:07:25;100582.94;;;15.24;52.02
49459;BME280;35354;51.296;16.924;2023-05-18T12:09:50;100560.56;;;15.17;50.44
49459;BME280;35354;51.296;16.924;2023-05-18T12:12:17;100575.16;;;15.22;50.66
49459;BME280;35354;51.296;16.924;2023-05-18T12:14:48;100581.31;;;15.39;50.75
49459;BME280;35354;51.296;16.924;2023-05-18T12:17:16;100515.28;;;14.96;50.94
49459;BME280;35354;51.296;16.924;2023-05-18T12:19:43;100582.69;;;15.29;51.32
49459;BME280;35354;51.296;16.924;2023-05-18T12:22:10;100603.38;;;15.35;51.42
49459;BME280;35354;51.296;16.924;2023-05-18T12:24:37;100552.41;;;14.88;51.20
49459;BME280;35354;51.296;16.924;2023-05-18T12:27:02;100581.63;;;15.15;50.80
49459;BME280;35354;51.296;16.924;2023-05-18T12:29:30;100562.09;;;15.21;50.83
49459;BME280;35354;51.296;16.924;2023-05-18T12:31:55;100553.81;;;15.29;50.99
49459;BME280;35354;51.296;16.924;2023-05-18T12:34:21;100573.66;;;15.52;49.44
49459;BME280;35354;51.296;16.924;2023-05-18T12:36:53;100556.94;;;15.53;49.65
49459;BME280;35354;51.296;16.924;2023-05-18T12:39:19;100569.31;;;15.68;49.28
49459;BME280;35354;51.296;16.924;2023-05-18T12:41:45;100566.00;;;15.47;49.93
49459;BME280;35354;51.296;16.924;2023-05-18T12:44:11;100539.81;;;15.45;49.84
49459;BME280;35354;51.296;16.924;2023-05-18T12:46:37;100530.34;;;15.43;48.31
49459;BME280;35354;51.296;16.924;2023-05-18T12:49:02;100556.84;;;15.54;48.94
49459;BME280;35354;51.296;16.924;2023-05-18T12:51:34;100526.00;;;15.42;49.39
49459;BME280;35354;51.296;16.924;2023-05-18T12:54:03;100523.63;;;15.37;49.58
49459;BME280;35354;51.296;16.924;2023-05-18T12:56:48;100576.09;;;15.55;50.07
49459;BME280;35354;51.296;16.924;2023-05-18T12:59:19;100544.81;;;15.34;49.39
49459;BME280;35354;51.296;16.924;2023-05-18T13:01:45;100536.28;;;15.29;49.69
49459;BME280;35354;51.296;16.924;2023-05-18T13:04:10;100552.34;;;15.40;49.73
49459;BME280;35354;51.296;16.924;2023-05-18T13:06:37;100532.53;;;15.35;50.75
49459;BME280;35354;51.296;16.924;2023-05-18T13:09:02;100534.06;;;15.39;50.69
49459;BME280;35354;51.296;16.924;2023-05-18T13:11:27;100567.53;;;15.68;51.16